sensor_id;sensor_type;location;lat;lon;timestamp;P1;durP1;ratioP1;P2;durP2;ratioP2
49440;SDS011;35317;51.978;6.296;2023-06-26T03:29:46;7.20;;;4.75;;
49440;SDS011;35317;51.978;6.296;2023-06-26T03:34:46;6.13;;;3.57;;
49440;SDS011;35317;51.978;6.296;2023-06-26T03:39:51;8.30;;;4.50;;
49440;SDS011;35317;51.978;6.296;2023-06-26T03:56:38;4.57;;;2.75;;
49440;SDS011;35317;51.978;6.296;2023-06-26T04:01:42;5.85;;;3.00;;
49440;SDS011;35317;51.978;6.296;2023-06-26T04:06:43;7.18;;;3.15;;
49440;SDS011;35317;51.978;6.296;2023-06-26T04:11:44;4.15;;;3.17;;
49440;SDS011;35317;51.978;6.296;2023-06-26T04:16:47;5.13;;;2.67;;
49440;SDS011;35317;51.978;6.296;2023-06-26T04:21:54;8.30;;;3.35;;
49440;SDS011;35317;51.978;6.296;2023-06-26T04:40:32;7.57;;;3.58;;
49440;SDS011;35317;51.978;6.296;2023-06-26T04:45:39;6.80;;;3.53;;
49440;SDS011;35317;51.978;6.296;2023-06-26T04:51:55;7.15;;;3.70;;
49440;SDS011;35317;51.978;6.296;2023-06-26T04:57:05;5.22;;;3.45;;
49440;SDS011;35317;51.978;6.296;2023-06-26T05:02:07;11.20;;;3.90;;
49440;SDS011;35317;51.978;6.296;2023-06-26T05:12:54;8.80;;;3.97;;
49440;SDS011;35317;51.978;6.296;2023-06-26T05:24:04;9.27;;;4.40;;
49440;SDS011;35317;51.978;6.296;2023-06-26T05:29:10;13.75;;;3.75;;
49440;SDS011;35317;51.978;6.296;2023-06-26T05:34:14;8.73;;;3.83;;
49440;SDS011;35317;51.978;6.296;2023-06-26T05:39:52;7.60;;;3.55;;
49440;SDS011;35317;51.978;6.296;2023-06-26T05:45:56;8.52;;;3.67;;
49440;SDS011;35317;51.978;6.296;2023-06-26T05:51:00;9.07;;;4.05;;
49440;SDS011;35317;51.978;6.296;2023-06-26T05:56:03;8.18;;;3.13;;
49440;SDS011;35317;51.978;6.296;2023-06-26T06:06:44;7.07;;;3.13;;
49440;SDS011;35317;51.978;6.296;2023-06-26T06:11:45;7.68;;;3.50;;
49440;SDS011;35317;51.978;6.296;2023-06-26T06:16:46;11.15;;;3.72;;
49440;SDS011;35317;51.978;6.296;2023-06-26T06:21:47;7.30;;;3.00;;
49440;SDS011;35317;51.978;6.296;2023-06-26T06:26:48;11.25;;;2.90;;
49440;SDS011;35317;51.978;6.296;2023-06-26T06:32:01;6.55;;;3.25;;
49440;SDS011;35317;51.978;6.296;2023-06-26T06:37:05;8.18;;;3.00;;
49440;SDS011;35317;51.978;6.296;2023-06-26T06:42:06;9.82;;;3.13;;
49440;SDS011;35317;51.978;6.296;2023-06-26T06:47:08;6.15;;;2.88;;
49440;SDS011;35317;51.978;6.296;2023-06-26T06:52:09;5.88;;;2.75;;
49440;SDS011;35317;51.978;6.296;2023-06-26T06:57:10;6.97;;;2.60;;
49440;SDS011;35317;51.978;6.296;2023-06-26T07:02:10;4.13;;;2.30;;
49440;SDS011;35317;51.978;6.296;2023-06-26T07:07:12;4.05;;;2.50;;
49440;SDS011;35317;51.978;6.296;2023-06-26T07:12:16;7.22;;;2.47;;
49440;SDS011;35317;51.978;6.296;2023-06-26T07:17:17;4.28;;;1.90;;
49440;SDS011;35317;51.978;6.296;2023-06-26T07:22:21;3.63;;;2.00;;
49440;SDS011;35317;51.978;6.296;2023-06-26T07:27:25;3.95;;;2.08;;
49440;SDS011;35317;51.978;6.296;2023-06-26T07:32:26;5.25;;;1.90;;
49440;SDS011;35317;51.978;6.296;2023-06-26T07:37:27;3.28;;;1.90;;
49440;SDS011;35317;51.978;6.296;2023-06-26T07:42:28;6.60;;;1.80;;
49440;SDS011;35317;51.978;6.296;2023-06-26T07:47:28;6.00;;;2.03;;
49440;SDS011;35317;51.978;6.296;2023-06-26T07:52:45;5.05;;;1.92;;
49440;SDS011;35317;51.978;6.296;2023-06-26T07:58:15;6.47;;;1.88;;
49440;SDS011;35317;51.978;6.296;2023-06-26T08:03:19;3.80;;;1.75;;
49440;SDS011;35317;51.978;6.296;2023-06-26T08:08:19;2.63;;;1.92;;
49440;SDS011;35317;51.978;6.296;2023-06-26T08:13:20;5.75;;;2.00;;
49440;SDS011;35317;51.978;6.296;2023-06-26T08:18:21;4.03;;;2.15;;
49440;SDS011;35317;51.978;6.296;2023-06-26T08:23:22;2.72;;;1.90;;
49440;SDS011;35317;51.978;6.296;2023-06-26T08:28:22;2.78;;;1.77;;
49440;SDS011;35317;51.978;6.296;2023-06-26T08:33:23;3.08;;;2.13;;
49440;SDS011;35317;51.978;6.296;2023-06-26T08:38:24;3.33;;;1.67;;
49440;SDS011;35317;51.978;6.296;2023-06-26T08:43:25;5.65;;;1.90;;
49440;SDS011;35317;51.978;6.296;2023-06-26T08:48:27;2.53;;;2.13;;
49440;SDS011;35317;51.978;6.296;2023-06-26T08:53:40;3.05;;;1.50;;
49440;SDS011;35317;51.978;6.296;2023-06-26T08:58:51;9.63;;;2.50;;
49440;SDS011;35317;51.978;6.296;2023-06-26T09:03:53;2.45;;;1.67;;
49440;SDS011;35317;51.978;6.296;2023-06-26T09:08:53;3.20;;;1.70;;
49440;SDS011;35317;51.978;6.296;2023-06-26T09:13:55;5.50;;;1.90;;
49440;SDS011;35317;51.978;6.296;2023-06-26T09:18:56;5.07;;;2.30;;
49440;SDS011;35317;51.978;6.296;2023-06-26T09:23:56;4.90;;;1.60;;
49440;SDS011;35317;51.978;6.296;2023-06-26T09:28:58;3.75;;;1.98;;
49440;SDS011;35317;51.978;6.296;2023-06-26T09:33:59;3.88;;;2.00;;
49440;SDS011;35317;51.978;6.296;2023-06-26T09:39:01;2.78;;;1.90;;
49440;SDS011;35317;51.978;6.296;2023-06-26T09:44:05;3.63;;;1.88;;
49440;SDS011;35317;51.978;6.296;2023-06-26T09:49:08;4.47;;;1.73;;
49440;SDS011;35317;51.978;6.296;2023-06-26T09:59:17;3.85;;;1.42;;
49440;SDS011;35317;51.978;6.296;2023-06-26T10:04:18;1.92;;;1.25;;
49440;SDS011;35317;51.978;6.296;2023-06-26T10:09:20;2.78;;;0.95;;
49440;SDS011;35317;51.978;6.296;2023-06-26T10:14:25;2.77;;;0.67;;
49440;SDS011;35317;51.978;6.296;2023-06-26T10:19:28;1.48;;;0.70;;
49440;SDS011;35317;51.978;6.296;2023-06-26T10:24:31;1.60;;;0.80;;
49440;SDS011;35317;51.978;6.296;2023-06-26T10:29:35;1.17;;;0.80;;
49440;SDS011;35317;51.978;6.296;2023-06-26T10:34:37;0.82;;;0.60;;
49440;SDS011;35317;51.978;6.296;2023-06-26T10:39:59;2.65;;;0.82;;
49440;SDS011;35317;51.978;6.296;2023-06-26T10:45:08;2.15;;;0.80;;
49440;SDS011;35317;51.978;6.296;2023-06-26T10:50:20;1.88;;;0.70;;
49440;SDS011;35317;51.978;6.296;2023-06-26T10:55:27;3.00;;;0.70;;
49440;SDS011;35317;51.978;6.296;2023-06-26T11:00:28;5.28;;;1.10;;
49440;SDS011;35317;51.978;6.296;2023-06-26T11:05:32;5.28;;;0.82;;
49440;SDS011;35317;51.978;6.296;2023-06-26T11:11:06;2.63;;;0.90;;
49440;SDS011;35317;51.978;6.296;2023-06-26T11:16:01;1.65;;;0.80;;
49440;SDS011;35317;51.978;6.296;2023-06-26T11:21:05;5.00;;;1.25;;
49440;SDS011;35317;51.978;6.296;2023-06-26T11:26:17;3.03;;;0.70;;
49440;SDS011;35317;51.978;6.296;2023-06-26T11:31:28;1.83;;;0.88;;
49440;SDS011;35317;51.978;6.296;2023-06-26T11:36:33;1.23;;;0.90;;
49440;SDS011;35317;51.978;6.296;2023-06-26T11:41:37;1.35;;;0.60;;
49440;SDS011;35317;51.978;6.296;2023-06-26T11:46:39;1.05;;;0.65;;
49440;SDS011;35317;51.978;6.296;2023-06-26T11:51:40;1.10;;;0.75;;
49440;SDS011;35317;51.978;6.296;2023-06-26T11:56:41;3.60;;;0.80;;
49440;SDS011;35317;51.978;6.296;2023-06-26T12:01:42;1.92;;;0.60;;
49440;SDS011;35317;51.978;6.296;2023-06-26T12:06:47;1.23;;;0.68;;
49440;SDS011;35317;51.978;6.296;2023-06-26T12:11:52;1.67;;;0.90;;
49440;SDS011;35317;51.978;6.296;2023-06-26T12:16:55;1.23;;;0.60;;
49440;SDS011;35317;51.978;6.296;2023-06-26T12:21:56;2.05;;;0.60;;
49440;SDS011;35317;51.978;6.296;2023-06-26T12:26:56;1.35;;;0.68;;
49440;SDS011;35317;51.978;6.296;2023-06-26T12:31:57;3.30;;;0.90;;
49440;SDS011;35317;51.978;6.296;2023-06-26T12:37:02;1.20;;;0.70;;
49440;SDS011;35317;51.978;6.296;2023-06-26T12:42:07;1.05;;;0.57;;
49440;SDS011;35317;51.978;6.296;2023-06-26T12:47:08;1.60;;;0.75;;
49440;SDS011;35317;51.978;6.296;2023-06-26T12:52:14;2.00;;;0.60;;
49440;SDS011;35317;51.978;6.296;2023-06-26T12:57:16;1.75;;;0.75;;
49440;SDS011;35317;51.978;6.296;2023-06-26T13:02:17;0.93;;;0.65;;
49440;SDS011;35317;51.978;6.296;2023-06-26T13:07:18;1.73;;;0.95;;
49440;SDS011;35317;51.978;6.296;2023-06-26T13:12:19;1.30;;;0.80;;
49440;SDS011;35317;51.978;6.296;2023-06-26T13:17:19;0.63;;;0.60;;
49440;SDS011;35317;51.978;6.296;2023-06-26T13:22:20;0.98;;;0.60;;
49440;SDS011;35317;51.978;6.296;2023-06-26T13:27:21;1.92;;;0.68;;
49440;SDS011;35317;51.978;6.296;2023-06-26T13:32:22;2.75;;;0.82;;
49440;SDS011;35317;51.978;6.296;2023-06-26T13:37:23;3.60;;;0.88;;
49440;SDS011;35317;51.978;6.296;2023-06-26T13:42:24;1.00;;;0.57;;
49440;SDS011;35317;51.978;6.296;2023-06-26T13:47:25;0.80;;;0.55;;
49440;SDS011;35317;51.978;6.296;2023-06-26T13:52:25;2.00;;;0.50;;
49440;SDS011;35317;51.978;6.296;2023-06-26T13:57:26;0.70;;;0.50;;
49440;SDS011;35317;51.978;6.296;2023-06-26T14:02:27;1.33;;;0.70;;
49440;SDS011;35317;51.978;6.296;2023-06-26T14:07:29;1.70;;;0.60;;
49440;SDS011;35317;51.978;6.296;2023-06-26T14:12:30;1.08;;;0.40;;
49440;SDS011;35317;51.978;6.296;2023-06-26T14:17:30;2.53;;;0.52;;
49440;SDS011;35317;51.978;6.296;2023-06-26T14:22:31;1.50;;;0.63;;
49440;SDS011;35317;51.978;6.296;2023-06-26T14:27:33;1.40;;;0.70;;
49440;SDS011;35317;51.978;6.296;2023-06-26T14:32:34;1.45;;;0.80;;
49440;SDS011;35317;51.978;6.296;2023-06-26T14:37:35;2.55;;;0.90;;
49440;SDS011;35317;51.978;6.296;2023-06-26T14:42:39;1.83;;;0.50;;
49440;SDS011;35317;51.978;6.296;2023-06-26T14:47:40;1.00;;;0.57;;
49440;SDS011;35317;51.978;6.296;2023-06-26T14:52:40;1.27;;;0.60;;
49440;SDS011;35317;51.978;6.296;2023-06-26T14:57:41;2.92;;;0.55;;
49440;SDS011;35317;51.978;6.296;2023-06-26T15:02:42;3.83;;;0.60;;
49440;SDS011;35317;51.978;6.296;2023-06-26T15:07:43;1.05;;;0.50;;
49440;SDS011;35317;51.978;6.296;2023-06-26T15:12:44;1.85;;;0.68;;
49440;SDS011;35317;51.978;6.296;2023-06-26T15:17:44;0.57;;;0.35;;
49440;SDS011;35317;51.978;6.296;2023-06-26T15:22:45;0.47;;;0.47;;
49440;SDS011;35317;51.978;6.296;2023-06-26T15:27:46;1.75;;;0.40;;
49440;SDS011;35317;51.978;6.296;2023-06-26T15:32:47;0.90;;;0.50;;
49440;SDS011;35317;51.978;6.296;2023-06-26T15:37:48;1.92;;;0.63;;
49440;SDS011;35317;51.978;6.296;2023-06-26T15:42:49;2.05;;;0.60;;
49440;SDS011;35317;51.978;6.296;2023-06-26T15:47:51;1.10;;;0.55;;
49440;SDS011;35317;51.978;6.296;2023-06-26T15:52:52;2.03;;;0.70;;
49440;SDS011;35317;51.978;6.296;2023-06-26T15:57:53;3.60;;;1.05;;
49440;SDS011;35317;51.978;6.296;2023-06-26T16:02:54;1.20;;;0.52;;
49440;SDS011;35317;51.978;6.296;2023-06-26T16:07:55;1.85;;;0.50;;
49440;SDS011;35317;51.978;6.296;2023-06-26T16:12:55;1.60;;;0.63;;
49440;SDS011;35317;51.978;6.296;2023-06-26T16:17:56;2.97;;;0.57;;
49440;SDS011;35317;51.978;6.296;2023-06-26T16:22:57;1.35;;;0.70;;
49440;SDS011;35317;51.978;6.296;2023-06-26T16:28:00;0.70;;;0.43;;
49440;SDS011;35317;51.978;6.296;2023-06-26T16:33:01;2.40;;;0.50;;
49440;SDS011;35317;51.978;6.296;2023-06-26T16:38:03;2.67;;;0.70;;
49440;SDS011;35317;51.978;6.296;2023-06-26T16:43:06;1.88;;;0.60;;
49440;SDS011;35317;51.978;6.296;2023-06-26T16:48:07;0.93;;;0.60;;
49440;SDS011;35317;51.978;6.296;2023-06-26T16:53:08;1.60;;;0.63;;
49440;SDS011;35317;51.978;6.296;2023-06-26T16:58:09;4.47;;;0.50;;
49440;SDS011;35317;51.978;6.296;2023-06-26T17:03:09;0.68;;;0.52;;
49440;SDS011;35317;51.978;6.296;2023-06-26T17:08:10;1.65;;;0.50;;
49440;SDS011;35317;51.978;6.296;2023-06-26T17:13:11;1.17;;;0.55;;
49440;SDS011;35317;51.978;6.296;2023-06-26T17:18:12;2.70;;;0.50;;
49440;SDS011;35317;51.978;6.296;2023-06-26T17:23:13;4.30;;;0.60;;
49440;SDS011;35317;51.978;6.296;2023-06-26T17:28:23;2.40;;;0.60;;
49440;SDS011;35317;51.978;6.296;2023-06-26T17:33:24;1.48;;;0.57;;
49440;SDS011;35317;51.978;6.296;2023-06-26T17:38:25;0.90;;;0.70;;
49440;SDS011;35317;51.978;6.296;2023-06-26T17:51:06;3.50;;;0.80;;
49440;SDS011;35317;51.978;6.296;2023-06-26T18:08:40;2.00;;;0.60;;
49440;SDS011;35317;51.978;6.296;2023-06-26T18:20:48;2.90;;;0.65;;
49440;SDS011;35317;51.978;6.296;2023-06-26T18:38:48;2.58;;;0.80;;
49440;SDS011;35317;51.978;6.296;2023-06-26T18:43:50;1.65;;;0.70;;
49440;SDS011;35317;51.978;6.296;2023-06-26T19:02:05;1.67;;;0.93;;
49440;SDS011;35317;51.978;6.296;2023-06-26T19:13:21;2.25;;;0.82;;
49440;SDS011;35317;51.978;6.296;2023-06-26T19:25:22;2.83;;;0.70;;
49440;SDS011;35317;51.978;6.296;2023-06-26T19:30:23;1.90;;;0.95;;
49440;SDS011;35317;51.978;6.296;2023-06-26T19:35:24;1.40;;;0.90;;
49440;SDS011;35317;51.978;6.296;2023-06-26T19:40:25;3.45;;;0.95;;
49440;SDS011;35317;51.978;6.296;2023-06-26T19:45:31;1.42;;;1.20;;
49440;SDS011;35317;51.978;6.296;2023-06-26T19:50:32;2.65;;;0.70;;
49440;SDS011;35317;51.978;6.296;2023-06-26T19:55:32;0.98;;;0.70;;
49440;SDS011;35317;51.978;6.296;2023-06-26T20:00:34;0.95;;;0.60;;
49440;SDS011;35317;51.978;6.296;2023-06-26T20:05:37;4.47;;;1.10;;
49440;SDS011;35317;51.978;6.296;2023-06-26T20:10:38;3.13;;;0.88;;
49440;SDS011;35317;51.978;6.296;2023-06-26T20:15:39;2.75;;;0.85;;
49440;SDS011;35317;51.978;6.296;2023-06-26T20:20:40;2.22;;;0.85;;
49440;SDS011;35317;51.978;6.296;2023-06-26T20:25:45;2.03;;;0.93;;
49440;SDS011;35317;51.978;6.296;2023-06-26T21:24:46;2.00;;;0.93;;
49440;SDS011;35317;51.978;6.296;2023-06-26T21:50:02;2.33;;;1.27;;
49440;SDS011;35317;51.978;6.296;2023-06-26T22:03:37;2.50;;;1.20;;
49440;SDS011;35317;51.978;6.296;2023-06-26T22:08:38;1.67;;;1.10;;
49440;SDS011;35317;51.978;6.296;2023-06-26T22:13:38;2.22;;;0.98;;
49440;SDS011;35317;51.978;6.296;2023-06-26T22:18:39;1.92;;;0.95;;
49440;SDS011;35317;51.978;6.296;2023-06-26T22:23:40;2.03;;;1.08;;
49440;SDS011;35317;51.978;6.296;2023-06-26T22:28:41;3.70;;;1.17;;
49440;SDS011;35317;51.978;6.296;2023-06-26T22:33:42;1.75;;;1.20;;
49440;SDS011;35317;51.978;6.296;2023-06-26T22:38:43;4.40;;;1.45;;
49440;SDS011;35317;51.978;6.296;2023-06-26T22:43:43;1.80;;;1.50;;
49440;SDS011;35317;51.978;6.296;2023-06-26T22:48:44;2.50;;;1.33;;
49440;SDS011;35317;51.978;6.296;2023-06-26T22:53:45;1.45;;;1.17;;
49440;SDS011;35317;51.978;6.296;2023-06-26T22:58:46;2.17;;;1.25;;
49440;SDS011;35317;51.978;6.296;2023-06-26T23:03:46;7.32;;;1.58;;
49440;SDS011;35317;51.978;6.296;2023-06-26T23:08:48;3.45;;;1.52;;
49440;SDS011;35317;51.978;6.296;2023-06-26T23:13:48;4.00;;;1.42;;
49440;SDS011;35317;51.978;6.296;2023-06-26T23:18:49;2.55;;;1.50;;
49440;SDS011;35317;51.978;6.296;2023-06-26T23:23:50;2.83;;;1.60;;
49440;SDS011;35317;51.978;6.296;2023-06-26T23:28:53;1.75;;;1.40;;
49440;SDS011;35317;51.978;6.296;2023-06-26T23:33:53;2.55;;;1.40;;
49440;SDS011;35317;51.978;6.296;2023-06-26T23:38:54;3.90;;;1.60;;
49440;SDS011;35317;51.978;6.296;2023-06-26T23:43:55;3.00;;;1.65;;
49440;SDS011;35317;51.978;6.296;2023-06-26T23:48:56;5.43;;;1.90;;
49440;SDS011;35317;51.978;6.296;2023-06-26T23:53:56;4.10;;;1.73;;
49440;SDS011;35317;51.978;6.296;2023-06-26T23:58:57;3.17;;;1.48;;
